Time;durP1;ratioP1;P1;durP2;ratioP2;P2;SDS_P1;SDS_P2;PMS_P1;PMS_P2;Temp;Humidity;BMP_temperature;BMP_pressure;BME280_temperature;BME280_humidity;BME280_pressure;Samples;Min_cycle;Max_cycle;Signal;HPM_P1;HPM_P2
2023/08/26 00:00:38;;;;;;;10.17;8.30;;;22.10;28.90;;;;;;5009790;28;20486;-67
2023/08/26 00:03:05;;;;;;;9.83;7.77;;;22.10;28.50;;;;;;5001849;28;20491;-67
2023/08/26 00:05:32;;;;;;;13.57;7.80;;;22.10;28.40;;;;;;5010641;28;20471;-67
2023/08/26 00:07:58;;;;;;;12.70;8.20;;;22.10;28.20;;;;;;5010152;28;20456;-67
2023/08/26 00:10:25;;;;;;;13.40;8.60;;;22.00;28.20;;;;;;5009899;28;20464;-67
2023/08/26 00:12:53;;;;;;;9.40;7.73;;;22.00;28.40;;;;;;5010176;28;20848;-67
2023/08/26 00:15:19;;;;;;;15.53;9.50;;;22.00;28.60;;;;;;5005682;28;20468;-67
2023/08/26 00:17:48;;;;;;;12.50;9.10;;;22.00;28.90;;;;;;5011003;28;20815;-67
2023/08/26 00:20:15;;;;;;;11.13;8.80;;;22.00;29.10;;;;;;5009033;28;20479;-67
2023/08/26 00:22:42;;;;;;;11.07;8.40;;;21.90;29.60;;;;;;5011371;28;20549;-67
2023/08/26 00:25:10;;;;;;;12.33;10.13;;;21.90;29.80;;;;;;5009440;28;20460;-67
2023/08/26 00:27:36;;;;;;;14.53;9.40;;;21.80;30.00;;;;;;5001662;23;21089;-64
2023/08/26 00:30:03;;;;;;;11.67;9.17;;;21.80;30.20;;;;;;4964916;28;20473;-63
2023/08/26 00:32:30;;;;;;;12.77;10.50;;;21.80;30.50;;;;;;4987644;28;21035;-63
2023/08/26 00:34:58;;;;;;;13.10;10.00;;;21.90;30.60;;;;;;4997096;28;20464;-63
2023/08/26 00:37:25;;;;;;;13.27;11.07;;;22.00;30.90;;;;;;4988265;28;20469;-63
2023/08/26 00:39:52;;;;;;;13.60;10.20;;;22.00;30.70;;;;;;4987158;28;20494;-63
2023/08/26 00:42:18;;;;;;;14.30;10.30;;;22.00;30.60;;;;;;4988746;28;20488;-63
2023/08/26 00:44:45;;;;;;;11.70;9.50;;;22.00;31.20;;;;;;4990628;28;21038;-64
2023/08/26 00:47:12;;;;;;;15.67;9.43;;;22.10;30.80;;;;;;4988625;28;20475;-63
2023/08/26 00:49:39;;;;;;;10.70;9.60;;;22.10;30.90;;;;;;4989853;28;20465;-63
2023/08/26 00:52:07;;;;;;;11.77;8.77;;;22.10;30.70;;;;;;4990146;28;20457;-63
2023/08/26 00:54:35;;;;;;;11.50;8.90;;;22.10;30.50;;;;;;4985185;28;20483;-64
2023/08/26 00:57:03;;;;;;;11.10;8.23;;;22.10;30.10;;;;;;4988787;28;20469;-63
2023/08/26 00:59:30;;;;;;;9.30;8.30;;;22.10;30.00;;;;;;4984135;28;20487;-63
2023/08/26 01:01:58;;;;;;;9.23;8.30;;;22.00;29.60;;;;;;4966975;28;20489;-63
2023/08/26 01:04:25;;;;;;;9.80;8.00;;;22.00;29.40;;;;;;4970505;28;20982;-63
2023/08/26 01:06:52;;;;;;;12.20;9.30;;;22.00;29.50;;;;;;4970554;28;20543;-63
2023/08/26 01:09:20;;;;;;;13.33;9.80;;;22.10;28.70;;;;;;4968423;28;20947;-63
2023/08/26 01:11:57;;;;;;;12.63;9.47;;;22.10;28.70;;;;;;4967793;28;20468;-63
2023/08/26 01:14:32;;;;;;;13.83;9.90;;;22.10;28.90;;;;;;4968266;28;20882;-63
2023/08/26 01:17:00;;;;;;;13.57;10.93;;;22.10;29.00;;;;;;4968656;28;20465;-63
2023/08/26 01:19:32;;;;;;;13.57;11.20;;;22.10;29.00;;;;;;4964788;28;20468;-63
2023/08/26 01:22:03;;;;;;;17.97;12.97;;;22.10;29.20;;;;;;4965919;28;20509;-63
2023/08/26 01:24:32;;;;;;;16.00;12.00;;;22.00;29.30;;;;;;4963137;28;20481;-63
2023/08/26 01:26:59;;;;;;;15.17;11.57;;;22.00;29.40;;;;;;4961778;28;20480;-65
2023/08/26 01:29:26;;;;;;;13.23;11.63;;;22.00;29.50;;;;;;4965002;28;20493;-64
2023/08/26 01:32:00;;;;;;;13.37;11.47;;;22.00;29.70;;;;;;4964698;28;20889;-65
2023/08/26 01:34:29;;;;;;;14.30;12.50;;;22.00;30.00;;;;;;4964982;28;20489;-64
2023/08/26 01:36:59;;;;;;;14.03;11.73;;;22.00;30.20;;;;;;4964519;28;20489;-64
2023/08/26 01:39:27;;;;;;;15.90;11.70;;;22.00;30.30;;;;;;4960458;28;20466;-64
2023/08/26 01:41:57;;;;;;;15.93;12.10;;;22.00;30.30;;;;;;4964501;28;21013;-64
2023/08/26 01:44:24;;;;;;;13.60;11.37;;;22.00;30.20;;;;;;4962681;28;20490;-64
2023/08/26 01:46:50;;;;;;;13.77;12.13;;;22.10;30.10;;;;;;4966997;28;20465;-64
2023/08/26 01:49:17;;;;;;;14.70;12.30;;;22.10;30.10;;;;;;4966342;28;20817;-64
2023/08/26 01:51:44;;;;;;;16.30;11.63;;;22.10;30.20;;;;;;4969168;28;20458;-65
2023/08/26 01:54:11;;;;;;;15.93;12.53;;;22.00;30.30;;;;;;4959277;28;20482;-64
2023/08/26 01:56:37;;;;;;;16.20;13.13;;;22.00;30.40;;;;;;4967468;28;20877;-64
2023/08/26 01:59:06;;;;;;;22.70;11.80;;;22.00;30.40;;;;;;4965845;28;20963;-65
2023/08/26 02:01:33;;;;;;;15.97;12.70;;;22.00;30.40;;;;;;4959076;28;20480;-67
2023/08/26 02:04:00;;;;;;;15.80;11.63;;;22.00;30.40;;;;;;4965502;28;20628;-67
2023/08/26 02:06:27;;;;;;;16.10;13.47;;;22.00;30.50;;;;;;4963273;28;20497;-66
2023/08/26 02:08:54;;;;;;;14.73;12.90;;;22.00;30.50;;;;;;4961236;28;20481;-66
2023/08/26 02:11:21;;;;;;;18.10;13.37;;;22.00;30.50;;;;;;4965510;28;20517;-66
2023/08/26 02:13:48;;;;;;;14.20;11.90;;;22.00;30.70;;;;;;4967122;28;20525;-66
2023/08/26 02:16:16;;;;;;;18.77;12.80;;;22.00;30.60;;;;;;4967746;28;20974;-66
2023/08/26 02:18:43;;;;;;;16.97;13.90;;;22.00;30.60;;;;;;4959161;28;20470;-68
2023/08/26 02:21:11;;;;;;;15.70;13.17;;;22.00;30.50;;;;;;4961414;28;20486;-65
2023/08/26 02:23:38;;;;;;;14.50;12.37;;;22.00;30.50;;;;;;4963902;28;20851;-65
2023/08/26 02:26:04;;;;;;;13.77;11.37;;;22.00;30.50;;;;;;4962059;28;20465;-65
2023/08/26 02:28:31;;;;;;;17.23;13.47;;;22.00;30.60;;;;;;4963199;28;20488;-66
2023/08/26 02:30:58;;;;;;;14.53;12.37;;;22.00;30.60;;;;;;4966282;28;20473;-65
2023/08/26 02:33:27;;;;;;;20.83;12.90;;;22.00;30.60;;;;;;4966169;28;20995;-65
2023/08/26 02:35:53;;;;;;;20.60;13.27;;;22.00;30.60;;;;;;4963195;28;20570;-65
2023/08/26 02:38:20;;;;;;;19.10;13.00;;;22.00;30.60;;;;;;4966442;28;20469;-65
2023/08/26 02:40:52;;;;;;;15.37;11.60;;;22.00;30.60;;;;;;4961231;28;20814;-65
2023/08/26 02:43:19;;;;;;;13.73;11.77;;;22.00;30.70;;;;;;4964734;28;20506;-66
2023/08/26 02:45:46;;;;;;;16.07;12.67;;;22.00;30.70;;;;;;4966161;28;20955;-65
2023/08/26 02:48:13;;;;;;;18.00;13.07;;;22.00;30.80;;;;;;4961223;28;20461;-65
2023/08/26 02:50:41;;;;;;;14.30;12.63;;;22.00;31.00;;;;;;4969458;28;20468;-65
2023/08/26 02:53:07;;;;;;;14.20;11.80;;;22.00;31.10;;;;;;4967934;28;20481;-65
2023/08/26 02:55:34;;;;;;;16.13;12.87;;;22.10;31.00;;;;;;4964506;28;20457;-65
2023/08/26 02:58:01;;;;;;;14.27;12.17;;;22.10;31.10;;;;;;4971230;28;20861;-65
2023/08/26 03:00:28;;;;;;;14.00;12.50;;;22.10;31.00;;;;;;4960514;28;20465;-65
2023/08/26 03:02:54;;;;;;;17.50;12.97;;;22.10;31.10;;;;;;4970655;28;20494;-65
2023/08/26 03:05:21;;;;;;;18.30;13.13;;;22.10;31.10;;;;;;4964169;28;20990;-65
2023/08/26 03:07:49;;;;;;;23.73;13.70;;;22.00;31.20;;;;;;4971912;28;20512;-65
2023/08/26 03:10:16;;;;;;;14.70;13.07;;;22.00;31.30;;;;;;4961903;28;20473;-66
2023/08/26 03:12:42;;;;;;;16.47;13.33;;;22.00;31.40;;;;;;4968861;28;20450;-65
2023/08/26 03:15:09;;;;;;;19.67;13.50;;;22.00;31.50;;;;;;4971509;28;20939;-65
2023/08/26 03:17:36;;;;;;;15.03;12.90;;;22.00;31.60;;;;;;4969850;28;20881;-66
2023/08/26 03:20:03;;;;;;;16.63;12.97;;;22.00;31.70;;;;;;4968339;28;20465;-65
2023/08/26 03:22:30;;;;;;;17.10;13.17;;;22.10;31.70;;;;;;4961077;28;20517;-65
2023/08/26 03:24:58;;;;;;;17.30;13.70;;;22.10;31.80;;;;;;4967488;28;20468;-65
2023/08/26 03:27:25;;;;;;;18.70;14.97;;;22.10;31.80;;;;;;4968944;28;20483;-65
2023/08/26 03:29:52;;;;;;;17.83;13.97;;;22.10;31.90;;;;;;4964112;28;20517;-65
2023/08/26 03:32:19;;;;;;;16.87;13.17;;;22.20;31.80;;;;;;4966333;28;20466;-65
2023/08/26 03:34:46;;;;;;;15.20;13.43;;;22.20;31.70;;;;;;4961887;28;20486;-66
2023/08/26 03:37:13;;;;;;;15.90;14.13;;;22.10;31.80;;;;;;4964234;28;20465;-65
2023/08/26 03:39:39;;;;;;;18.23;13.33;;;22.10;31.90;;;;;;4968249;28;20466;-65
2023/08/26 03:42:07;;;;;;;14.17;12.30;;;22.10;31.90;;;;;;4965433;28;20493;-66
2023/08/26 03:44:34;;;;;;;15.83;13.83;;;22.10;31.90;;;;;;4968049;28;20481;-65
2023/08/26 03:47:01;;;;;;;14.90;13.13;;;22.10;31.90;;;;;;4964139;28;20468;-65
2023/08/26 03:49:27;;;;;;;17.00;12.87;;;22.10;31.90;;;;;;4969287;28;20466;-65
2023/08/26 03:51:54;;;;;;;14.83;12.80;;;22.10;31.80;;;;;;4967744;28;21022;-65
2023/08/26 03:54:21;;;;;;;15.17;12.97;;;22.20;31.70;;;;;;4971255;28;20484;-66
2023/08/26 03:56:48;;;;;;;14.10;12.37;;;22.20;31.60;;;;;;4967843;28;20485;-66
2023/08/26 03:59:16;;;;;;;17.70;14.27;;;22.20;31.40;;;;;;4968272;28;20462;-65
2023/08/26 04:01:43;;;;;;;15.40;13.30;;;22.20;31.50;;;;;;4962528;28;20492;-66
2023/08/26 04:04:10;;;;;;;18.20;12.53;;;22.10;31.50;;;;;;4964369;28;20490;-65
2023/08/26 04:06:37;;;;;;;14.97;12.87;;;22.10;31.50;;;;;;4967250;28;21021;-66
2023/08/26 04:09:03;;;;;;;14.97;11.47;;;22.10;31.50;;;;;;4971121;28;20465;-65
2023/08/26 04:11:30;;;;;;;13.90;11.53;;;22.10;31.50;;;;;;4961705;28;20457;-65
2023/08/26 04:13:57;;;;;;;16.63;12.30;;;22.00;31.30;;;;;;4965189;28;20998;-65
2023/08/26 04:16:25;;;;;;;16.20;11.57;;;22.00;31.30;;;;;;4967477;28;20466;-65
2023/08/26 04:18:51;;;;;;;16.13;11.97;;;22.00;31.30;;;;;;4961387;28;20481;-66
2023/08/26 04:21:19;;;;;;;14.07;12.13;;;21.90;31.40;;;;;;4970675;28;20550;-66
2023/08/26 04:23:46;;;;;;;13.77;12.30;;;21.90;31.40;;;;;;4966791;28;20485;-66
2023/08/26 04:26:12;;;;;;;16.07;13.20;;;21.90;31.50;;;;;;4964776;28;20516;-65
2023/08/26 04:28:39;;;;;;;15.00;13.23;;;21.90;31.70;;;;;;4976813;28;20462;-65
2023/08/26 04:31:07;;;;;;;16.97;14.60;;;21.90;31.80;;;;;;4969246;28;20481;-65
2023/08/26 04:33:36;;;;;;;18.60;14.20;;;21.90;32.00;;;;;;4966458;28;20488;-65
2023/08/26 04:36:03;;;;;;;18.57;14.33;;;21.90;32.20;;;;;;4965451;28;21231;-66
2023/08/26 04:38:30;;;;;;;17.90;13.23;;;21.80;32.20;;;;;;4970578;28;20564;-65
2023/08/26 04:40:57;;;;;;;15.37;13.77;;;21.80;32.40;;;;;;4967590;28;20475;-65
2023/08/26 04:43:25;;;;;;;15.47;13.87;;;21.80;32.40;;;;;;4966162;28;20500;-65
2023/08/26 04:45:52;;;;;;;15.33;13.73;;;21.80;32.50;;;;;;4965478;28;20477;-65
2023/08/26 04:48:19;;;;;;;16.20;13.70;;;21.80;32.50;;;;;;4966476;28;20470;-65
2023/08/26 04:50:47;;;;;;;15.20;12.97;;;21.80;32.70;;;;;;4964203;28;20474;-65
2023/08/26 04:53:14;;;;;;;17.57;14.83;;;21.80;32.90;;;;;;4970790;28;20500;-65
2023/08/26 04:55:41;;;;;;;18.07;14.50;;;21.80;32.80;;;;;;4967934;28;20478;-65
2023/08/26 04:58:08;;;;;;;14.20;12.80;;;21.80;32.80;;;;;;4967546;28;20466;-65
2023/08/26 05:00:36;;;;;;;17.80;14.27;;;21.80;33.00;;;;;;4964443;28;20466;-65
2023/08/26 05:03:03;;;;;;;17.10;13.80;;;21.80;32.90;;;;;;4963827;28;20521;-65
2023/08/26 05:05:30;;;;;;;14.50;12.93;;;21.90;33.20;;;;;;4962497;28;20470;-66
2023/08/26 05:07:58;;;;;;;13.80;12.40;;;21.90;33.00;;;;;;4963103;28;20819;-66
2023/08/26 05:10:25;;;;;;;14.73;13.10;;;21.90;33.00;;;;;;4970059;28;20477;-66
2023/08/26 05:12:51;;;;;;;17.60;13.20;;;21.90;32.90;;;;;;4960043;28;20478;-65
2023/08/26 05:15:18;;;;;;;15.10;11.33;;;22.00;32.70;;;;;;4970292;28;21304;-65
2023/08/26 05:17:45;;;;;;;13.37;11.67;;;22.00;32.60;;;;;;4969080;28;20462;-66
2023/08/26 05:20:12;;;;;;;13.40;12.00;;;22.00;32.40;;;;;;4966042;28;20467;-65
2023/08/26 05:22:41;;;;;;;15.20;12.00;;;22.00;32.30;;;;;;4967189;28;20493;-65
2023/08/26 05:25:10;;;;;;;13.37;11.97;;;22.00;32.10;;;;;;4967541;28;21274;-66
2023/08/26 05:27:36;;;;;;;13.10;11.33;;;22.00;31.90;;;;;;4965620;28;20458;-65
2023/08/26 05:30:04;;;;;;;12.67;10.93;;;22.00;31.90;;;;;;4970706;28;20461;-65
2023/08/26 05:32:31;;;;;;;16.07;12.83;;;22.10;31.80;;;;;;4967868;28;20468;-65
2023/08/26 05:34:58;;;;;;;13.13;11.53;;;22.10;31.70;;;;;;4963200;28;20512;-65
2023/08/26 05:37:24;;;;;;;11.50;10.30;;;22.20;31.60;;;;;;4966499;28;20542;-65
2023/08/26 05:39:51;;;;;;;13.27;11.00;;;22.10;31.60;;;;;;4970701;28;20461;-65
2023/08/26 05:42:21;;;;;;;15.40;11.23;;;22.10;31.70;;;;;;4969383;28;20478;-65
2023/08/26 05:44:48;;;;;;;13.13;11.33;;;22.10;31.70;;;;;;4963148;28;20485;-65
2023/08/26 05:47:14;;;;;;;15.57;11.33;;;22.20;31.60;;;;;;4969373;28;20977;-65
2023/08/26 05:49:41;;;;;;;11.87;10.20;;;22.40;31.50;;;;;;4964652;28;20461;-65
2023/08/26 05:52:08;;;;;;;11.70;10.50;;;22.40;31.40;;;;;;4963783;28;21029;-66
2023/08/26 05:54:34;;;;;;;10.80;9.27;;;22.60;31.10;;;;;;4965655;28;20477;-65
2023/08/26 05:57:01;;;;;;;12.00;8.53;;;22.70;30.60;;;;;;4964233;28;20461;-65
2023/08/26 05:59:29;;;;;;;12.13;9.70;;;22.80;30.20;;;;;;4969556;28;20462;-65
2023/08/26 06:01:56;;;;;;;12.00;9.43;;;22.80;30.00;;;;;;4965885;28;20478;-65
2023/08/26 06:04:23;;;;;;;10.73;8.70;;;22.80;29.60;;;;;;4961809;28;20487;-65
2023/08/26 06:06:50;;;;;;;12.30;8.70;;;22.80;29.40;;;;;;4962720;28;20919;-65
2023/08/26 06:09:16;;;;;;;10.67;9.00;;;22.80;29.40;;;;;;4968904;28;20495;-65
2023/08/26 06:11:43;;;;;;;10.60;8.20;;;22.70;29.40;;;;;;4964175;28;20477;-65
2023/08/26 06:14:10;;;;;;;10.30;8.23;;;22.70;29.40;;;;;;4962577;28;20470;-65
2023/08/26 06:16:38;;;;;;;10.40;8.20;;;22.80;29.20;;;;;;4965786;28;20493;-65
2023/08/26 06:19:05;;;;;;;10.87;7.53;;;22.80;29.20;;;;;;4965027;28;20455;-66
2023/08/26 06:21:31;;;;;;;10.27;9.17;;;22.80;29.00;;;;;;4966163;28;20462;-65
2023/08/26 06:23:58;;;;;;;10.20;7.33;;;22.90;29.30;;;;;;4963240;28;20854;-65
2023/08/26 06:26:25;;;;;;;10.73;8.10;;;23.00;28.70;;;;;;4969755;28;20461;-65
2023/08/26 06:28:52;;;;;;;9.97;8.47;;;23.00;28.30;;;;;;4965310;28;20485;-65
2023/08/26 06:31:19;;;;;;;12.30;9.20;;;23.00;27.80;;;;;;4965117;28;20474;-65
2023/08/26 06:33:48;;;;;;;9.77;8.30;;;23.10;27.80;;;;;;4963192;28;20488;-65
2023/08/26 06:36:15;;;;;;;11.50;9.57;;;23.10;27.80;;;;;;4966524;28;20454;-65
2023/08/26 06:38:41;;;;;;;11.63;9.40;;;23.10;27.90;;;;;;4967842;28;20469;-65
2023/08/26 06:41:08;;;;;;;14.13;9.40;;;23.10;27.80;;;;;;4967946;28;20466;-65
2023/08/26 06:43:35;;;;;;;11.57;9.13;;;23.10;28.10;;;;;;4966120;28;21087;-65
2023/08/26 06:46:02;;;;;;;12.63;9.10;;;23.00;28.10;;;;;;4963171;28;20462;-66
2023/08/26 06:48:28;;;;;;;11.97;9.70;;;23.00;28.10;;;;;;4967729;28;20478;-66
2023/08/26 06:50:56;;;;;;;12.13;10.30;;;23.10;28.30;;;;;;4967317;28;20466;-66
2023/08/26 06:53:23;;;;;;;9.90;8.43;;;23.20;28.30;;;;;;4966399;28;20481;-65
2023/08/26 06:55:51;;;;;;;16.97;9.30;;;23.40;28.20;;;;;;4965201;28;20493;-66
2023/08/26 06:58:18;;;;;;;10.37;8.50;;;23.80;27.90;;;;;;4964652;28;20476;-65
2023/08/26 07:00:45;;;;;;;10.40;8.10;;;24.20;27.30;;;;;;4959919;28;20473;-65
2023/08/26 07:03:12;;;;;;;10.80;8.40;;;25.00;26.30;;;;;;4965240;28;20474;-66
2023/08/26 07:05:42;;;;;;;10.63;7.30;;;25.80;22.30;;;;;;4963913;28;20466;-66
2023/08/26 07:08:10;;;;;;;10.57;8.23;;;26.20;20.40;;;;;;4968781;28;20462;-66
2023/08/26 07:10:37;;;;;;;9.70;7.20;;;26.50;19.40;;;;;;4969191;28;20496;-65
2023/08/26 07:13:04;;;;;;;9.77;6.43;;;28.00;17.30;;;;;;4968819;28;20484;-65
2023/08/26 07:15:31;;;;;;;9.23;6.07;;;30.70;10.90;;;;;;4965102;28;20462;-66
2023/08/26 07:17:58;;;;;;;8.43;5.60;;;33.20;4.80;;;;;;4964389;28;20470;-66
2023/08/26 07:20:25;;;;;;;9.50;4.97;;;35.10;1.00;;;;;;4969163;28;20457;-66
2023/08/26 07:22:52;;;;;;;9.20;4.60;;;35.10;1.00;;;;;;4959834;28;20489;-66
2023/08/26 07:25:20;;;;;;;9.17;5.87;;;34.30;1.00;;;;;;4966861;28;20552;-66
2023/08/26 07:27:46;;;;;;;11.37;6.00;;;33.30;1.00;;;;;;4967158;28;20469;-66
2023/08/26 07:30:14;;;;;;;8.27;6.47;;;32.40;1.00;;;;;;4966474;28;20458;-66
2023/08/26 07:32:41;;;;;;;7.10;4.90;;;31.60;1.50;;;;;;4965236;28;20462;-66
2023/08/26 07:35:09;;;;;;;6.97;4.93;;;30.80;2.80;;;;;;4967818;28;20512;-66
2023/08/26 07:37:36;;;;;;;7.13;4.73;;;30.10;4.30;;;;;;4965057;28;20466;-66
2023/08/26 07:40:05;;;;;;;8.43;4.47;;;29.40;5.10;;;;;;4963396;28;20481;-66
2023/08/26 07:42:33;;;;;;;7.33;4.83;;;28.80;5.90;;;;;;4971805;28;20458;-66
2023/08/26 07:44:59;;;;;;;9.10;4.57;;;28.30;6.90;;;;;;4968298;28;20846;-67
2023/08/26 07:47:27;;;;;;;9.83;4.80;;;27.80;7.40;;;;;;4971053;28;20461;-66
2023/08/26 07:49:53;;;;;;;8.90;5.17;;;27.30;8.30;;;;;;4970538;28;20480;-66
2023/08/26 07:52:20;;;;;;;9.90;5.70;;;27.00;9.30;;;;;;4972463;28;20457;-66
2023/08/26 07:54:47;;;;;;;8.93;4.60;;;26.70;9.70;;;;;;4967367;28;20521;-66
2023/08/26 07:57:14;;;;;;;8.23;4.50;;;26.50;10.40;;;;;;4972350;28;20474;-66
2023/08/26 07:59:42;;;;;;;8.90;4.83;;;26.20;11.00;;;;;;4966543;28;20454;-66
2023/08/26 08:02:09;;;;;;;8.57;5.00;;;26.00;11.60;;;;;;4965212;28;20485;-65
2023/08/26 08:04:36;;;;;;;8.40;5.00;;;25.80;11.70;;;;;;4971161;28;20547;-66
2023/08/26 08:07:03;;;;;;;9.30;5.30;;;25.80;12.20;;;;;;4969743;28;21009;-66
2023/08/26 08:09:30;;;;;;;11.17;5.83;;;25.70;12.50;;;;;;4968487;28;20461;-67
2023/08/26 08:11:56;;;;;;;7.13;4.70;;;25.60;12.60;;;;;;4969008;28;21210;-66
2023/08/26 08:14:23;;;;;;;7.80;5.27;;;25.50;12.70;;;;;;4964095;28;20481;-66
2023/08/26 08:16:51;;;;;;;13.50;5.50;;;25.50;12.80;;;;;;4971310;28;20501;-66
2023/08/26 08:19:18;;;;;;;8.70;5.63;;;25.70;12.90;;;;;;4968284;28;20480;-66
2023/08/26 08:21:44;;;;;;;9.23;4.67;;;26.10;12.60;;;;;;4967739;28;20469;-66
2023/08/26 08:24:11;;;;;;;13.33;5.20;;;27.80;11.50;;;;;;4961838;28;20481;-66
2023/08/26 08:26:40;;;;;;;8.70;4.77;;;29.90;4.90;;;;;;4991710;23;20506;-65
2023/08/26 08:29:07;;;;;;;9.23;5.40;;;31.80;3.00;;;;;;5010083;28;20835;-65
2023/08/26 08:31:34;;;;;;;8.50;4.90;;;34.70;1.00;;;;;;5014931;28;20463;-65
2023/08/26 08:34:03;;;;;;;7.83;4.30;;;36.30;1.00;;;;;;5011629;28;20552;-65
2023/08/26 08:36:30;;;;;;;7.80;3.80;;;37.90;1.00;;;;;;5016443;28;20450;-64
2023/08/26 08:38:56;;;;;;;8.13;4.70;;;37.60;1.00;;;;;;5007411;28;20460;-64
2023/08/26 08:41:23;;;;;;;10.57;4.77;;;36.60;1.00;;;;;;5015607;28;21104;-64
2023/08/26 08:43:56;;;;;;;8.83;4.90;;;35.40;1.00;;;;;;5015434;28;20486;-65
2023/08/26 08:46:23;;;;;;;7.73;4.00;;;34.50;1.00;;;;;;5017868;28;20983;-65
2023/08/26 08:48:50;;;;;;;9.27;4.00;;;33.60;1.00;;;;;;5015095;28;20455;-65
2023/08/26 08:51:19;;;;;;;7.03;4.10;;;33.00;1.00;;;;;;5017809;28;20468;-65
2023/08/26 08:53:46;;;;;;;8.23;4.33;;;32.70;1.00;;;;;;5009374;28;20486;-65
2023/08/26 08:56:16;;;;;;;7.53;4.77;;;32.80;1.00;;;;;;5010029;28;20966;-64
2023/08/26 08:58:46;;;;;;;7.90;4.40;;;32.80;1.00;;;;;;5005579;28;20492;-64
2023/08/26 09:01:14;;;;;;;7.03;4.40;;;33.10;1.00;;;;;;5007543;28;20571;-65
2023/08/26 09:03:41;;;;;;;7.43;4.30;;;33.80;1.00;;;;;;5011672;28;20488;-65
2023/08/26 09:06:09;;;;;;;7.23;3.97;;;33.50;1.00;;;;;;5010309;28;20464;-65
2023/08/26 09:08:37;;;;;;;5.33;3.10;;;33.70;1.00;;;;;;5007212;28;20471;-65
2023/08/26 09:11:05;;;;;;;9.07;4.73;;;34.70;1.00;;;;;;5010515;28;20475;-65
2023/08/26 09:13:32;;;;;;;11.47;4.97;;;35.20;1.00;;;;;;5008983;28;21034;-66
2023/08/26 09:15:58;;;;;;;10.00;5.13;;;36.00;1.00;;;;;;5008688;28;20948;-65
2023/08/26 09:18:25;;;;;;;7.77;4.93;;;37.00;1.00;;;;;;5011849;28;20463;-64
2023/08/26 09:20:52;;;;;;;7.40;5.03;;;38.50;1.00;;;;;;5009252;28;20460;-64
2023/08/26 09:23:18;;;;;;;8.63;4.87;;;40.50;1.00;;;;;;5009415;28;20544;-64
2023/08/26 09:25:54;;;;;;;9.03;5.07;;;42.10;1.00;;;;;;5008722;28;20471;-64
2023/08/26 09:28:23;;;;;;;8.47;4.37;;;41.20;1.00;;;;;;5010427;28;20459;-65
2023/08/26 09:31:03;;;;;;;10.40;5.17;;;40.80;1.00;;;;;;5010257;28;20477;-65
2023/08/26 09:33:30;;;;;;;7.00;4.90;;;41.00;1.00;;;;;;5007289;28;20475;-65
2023/08/26 09:35:58;;;;;;;7.63;4.67;;;40.20;1.00;;;;;;5007952;28;20459;-65
2023/08/26 09:38:25;;;;;;;6.87;4.60;;;40.50;1.00;;;;;;5009478;28;20455;-64
2023/08/26 09:40:58;;;;;;;6.00;4.30;;;41.40;1.00;;;;;;5009051;28;20459;-65
2023/08/26 09:43:25;;;;;;;8.67;5.37;;;42.20;1.00;;;;;;5006587;28;20491;-64
2023/08/26 09:45:56;;;;;;;7.03;4.40;;;41.70;1.00;;;;;;5008782;28;20460;-64
2023/08/26 09:48:23;;;;;;;5.97;4.30;;;40.90;1.00;;;;;;5007279;28;21006;-65
2023/08/26 09:50:50;;;;;;;6.67;3.83;;;41.30;1.00;;;;;;5008977;28;20456;-65
2023/08/26 09:53:30;;;;;;;9.13;4.10;;;40.70;1.00;;;;;;5008589;28;20475;-65
2023/08/26 09:55:58;;;;;;;9.60;5.13;;;40.00;1.00;;;;;;5006456;28;20487;-65
2023/08/26 09:58:25;;;;;;;8.87;4.33;;;39.30;1.00;;;;;;5007415;28;21824;-65
2023/08/26 10:00:54;;;;;;;9.90;5.50;;;40.10;1.00;;;;;;5006893;28;20502;-65
2023/08/26 10:03:24;;;;;;;8.70;4.90;;;41.00;1.00;;;;;;5007055;28;20488;-64
2023/08/26 10:05:53;;;;;;;7.47;4.00;;;41.80;1.00;;;;;;5007992;28;20521;-65
2023/08/26 10:08:22;;;;;;;5.97;4.20;;;40.50;1.00;;;;;;5007150;28;20506;-65
2023/08/26 10:10:54;;;;;;;7.63;4.90;;;39.00;1.00;;;;;;5009625;28;20940;-65
2023/08/26 10:13:26;;;;;;;6.60;4.27;;;37.60;1.00;;;;;;5006731;28;20567;-64
2023/08/26 10:15:55;;;;;;;9.33;4.60;;;36.50;1.00;;;;;;5005628;28;20474;-64
2023/08/26 10:18:34;;;;;;;8.90;4.67;;;36.20;1.00;;;;;;5007867;28;20580;-64
2023/08/26 10:21:03;;;;;;;8.03;4.70;;;36.10;1.00;;;;;;5007568;28;20460;-64
2023/08/26 10:23:30;;;;;;;7.67;5.00;;;35.70;1.00;;;;;;5009051;28;20510;-65
2023/08/26 10:25:57;;;;;;;7.77;5.00;;;35.40;1.00;;;;;;5008749;28;20460;-64
2023/08/26 10:28:26;;;;;;;8.60;4.70;;;35.80;1.00;;;;;;5008936;28;20464;-65
2023/08/26 10:30:54;;;;;;;9.47;5.10;;;36.50;1.00;;;;;;5006253;28;20750;-64
2023/08/26 10:33:21;;;;;;;7.63;5.40;;;36.60;1.00;;;;;;5002720;28;20567;-64
2023/08/26 10:35:58;;;;;;;9.40;5.63;;;36.40;1.00;;;;;;5009497;28;20532;-65
2023/08/26 10:38:25;;;;;;;8.80;5.93;;;35.60;1.00;;;;;;5018176;28;20466;-64
2023/08/26 10:41:08;;;;;;;8.30;5.27;;;34.90;1.00;;;;;;5015875;28;20458;-64
2023/08/26 10:43:36;;;;;;;7.90;5.97;;;34.20;1.00;;;;;;5006744;28;20505;-65
2023/08/26 10:46:03;;;;;;;12.20;5.67;;;33.90;1.00;;;;;;5008891;28;20465;-64
2023/08/26 10:48:30;;;;;;;9.40;5.27;;;33.70;1.00;;;;;;5019379;28;20466;-64
2023/08/26 10:51:01;;;;;;;7.67;5.43;;;33.50;1.00;;;;;;5007448;28;20483;-64
2023/08/26 10:53:28;;;;;;;10.47;5.50;;;33.40;1.00;;;;;;5015688;28;20475;-64
2023/08/26 10:56:12;;;;;;;8.43;6.20;;;33.40;1.00;;;;;;5008307;28;20451;-64
2023/08/26 10:58:46;;;;;;;10.70;5.90;;;33.30;1.00;;;;;;5007755;28;20462;-64
2023/08/26 11:01:13;;;;;;;8.37;5.40;;;33.10;1.00;;;;;;5015381;28;20471;-64
2023/08/26 11:03:40;;;;;;;8.83;6.43;;;32.80;1.00;;;;;;5008797;28;20490;-66
2023/08/26 11:06:09;;;;;;;9.50;5.13;;;32.50;1.00;;;;;;5007565;28;20463;-65
2023/08/26 11:08:37;;;;;;;7.83;5.23;;;32.30;1.00;;;;;;5004926;28;21372;-64
2023/08/26 11:11:04;;;;;;;8.30;5.13;;;32.00;1.00;;;;;;5014393;28;20499;-64
2023/08/26 11:13:31;;;;;;;10.33;6.13;;;31.70;1.00;;;;;;5012467;28;20478;-64
2023/08/26 11:15:59;;;;;;;9.40;6.47;;;31.40;1.00;;;;;;5011612;28;20469;-64
2023/08/26 11:18:26;;;;;;;10.07;6.47;;;31.10;1.00;;;;;;5013790;28;20821;-64
2023/08/26 11:20:53;;;;;;;8.43;5.70;;;30.80;1.00;;;;;;5019722;28;20488;-64
2023/08/26 11:23:24;;;;;;;7.93;5.17;;;30.70;1.00;;;;;;5011950;28;20994;-64
2023/08/26 11:25:51;;;;;;;9.63;6.80;;;30.50;1.00;;;;;;5010497;28;20456;-66
2023/08/26 11:28:17;;;;;;;10.03;6.13;;;30.40;1.00;;;;;;5015647;28;20475;-65
2023/08/26 11:30:46;;;;;;;13.10;6.30;;;30.30;1.10;;;;;;5015401;28;20512;-65
2023/08/26 11:33:17;;;;;;;8.47;5.60;;;30.20;1.70;;;;;;5015869;28;20574;-65
2023/08/26 11:35:45;;;;;;;12.07;5.57;;;30.20;1.80;;;;;;5013296;28;20455;-65
2023/08/26 11:38:12;;;;;;;8.87;5.70;;;30.10;1.80;;;;;;5010040;28;20452;-65
2023/08/26 11:40:39;;;;;;;10.20;6.10;;;30.00;1.80;;;;;;5004405;28;20456;-65
2023/08/26 11:43:07;;;;;;;10.67;5.90;;;29.80;1.80;;;;;;5011317;28;20479;-65
2023/08/26 11:45:34;;;;;;;10.37;5.73;;;29.50;2.20;;;;;;5008603;28;20479;-65
2023/08/26 11:48:01;;;;;;;8.40;5.43;;;29.30;3.20;;;;;;5011327;28;20464;-65
2023/08/26 11:50:30;;;;;;;9.33;5.27;;;29.00;4.40;;;;;;5009587;28;20471;-65
2023/08/26 11:52:57;;;;;;;10.17;5.70;;;28.80;3.90;;;;;;5010564;28;20479;-65
2023/08/26 11:55:28;;;;;;;9.67;4.77;;;28.60;4.40;;;;;;5007720;28;20464;-65
2023/08/26 11:57:55;;;;;;;9.30;5.37;;;28.40;5.10;;;;;;5006831;28;20456;-65
2023/08/26 12:00:23;;;;;;;12.07;5.50;;;28.30;5.60;;;;;;5011085;28;20459;-65
2023/08/26 12:02:50;;;;;;;10.63;5.60;;;28.20;6.00;;;;;;5015854;28;20483;-65
2023/08/26 12:05:18;;;;;;;11.80;5.90;;;28.00;6.40;;;;;;5010115;28;20488;-65
2023/08/26 12:07:48;;;;;;;12.73;5.50;;;27.80;5.80;;;;;;5009578;28;20857;-64
2023/08/26 12:10:17;;;;;;;10.87;5.70;;;27.70;6.40;;;;;;5009061;28;20468;-65
2023/08/26 12:12:45;;;;;;;12.37;5.23;;;27.50;6.70;;;;;;5008065;28;20466;-65
2023/08/26 12:15:13;;;;;;;10.00;5.90;;;27.40;7.00;;;;;;5008937;28;20459;-65
2023/08/26 12:17:44;;;;;;;10.97;5.07;;;27.40;7.20;;;;;;5008816;28;20486;-65
2023/08/26 12:20:21;;;;;;;8.37;5.07;;;27.30;7.10;;;;;;5008467;28;20455;-64
2023/08/26 12:22:50;;;;;;;8.80;4.93;;;27.10;7.80;;;;;;5008134;28;20487;-65
2023/08/26 12:25:18;;;;;;;9.60;6.33;;;27.00;7.90;;;;;;5018724;28;20479;-65
2023/08/26 12:27:45;;;;;;;8.07;5.33;;;26.80;8.50;;;;;;5012340;28;20467;-65
2023/08/26 12:30:12;;;;;;;14.83;5.17;;;26.70;8.80;;;;;;5020436;28;20467;-65
2023/08/26 12:32:39;;;;;;;8.30;5.33;;;26.50;9.00;;;;;;5010061;28;20475;-64
2023/08/26 12:35:06;;;;;;;9.00;5.23;;;26.40;9.30;;;;;;5018018;28;20463;-65
2023/08/26 12:37:33;;;;;;;8.70;2.87;;;26.30;10.20;;;;;;5019054;28;20463;-64
2023/08/26 12:40:04;;;;;;;13.00;2.37;;;26.20;7.80;;;;;;5017110;28;20514;-64
2023/08/26 12:42:31;;;;;;;9.40;3.07;;;25.60;6.60;;;;;;5011438;28;21186;-64